Louis, Missouri
Current Conditions -  °F | °C
As of 5:53 PM on Monday 22 Dec 2014 (Local Time) from KCPS Reporting Station
Haze Haze  
Wind Chill: 50°   Ceiling: 600
Heat Index: 50°   Visibility: 4mi
Dew Point: 48°   Wind: 7mph
Humidity: 93%   Direction: 150°SSE
Pressure: 29.55"   Gusts: NA
Location:  38.6578°N, 90.2474°W
Report Text: KCPS 222353Z 15006KT 4SM BR OVC006 10/09 A2955 RMK AO2 RAE48 SLP006 P0003 60018 T01000089 10100 20083 56006
Loading
Personal Weather Stations






























Interactive Weather Map New forecast layout! Learn more

10-Day Weather Forecast

Advertisements
Track Severe Weather on mobile